Time;durP1;ratioP1;P1;durP2;ratioP2;P2;SDS_P1;SDS_P2;PMS_P1;PMS_P2;Temp;Humidity;BMP_temperature;BMP_pressure;BME280_temperature;BME280_humidity;BME280_pressure;Samples;Min_cycle;Max_cycle;Signal;HPM_P1;HPM_P2
2022/05/07 00:02:06;;;;;;;4.10;2.50;;;;;;;;;;5055380;28;20213;-86
2022/05/07 00:04:34;;;;;;;3.10;2.80;;;;;;;;;;5054895;28;20649;-86
2022/05/07 00:07:01;;;;;;;3.33;2.97;;;;;;;;;;5054998;28;20226;-86
2022/05/07 00:09:28;;;;;;;6.37;2.90;;;;;;;;;;5054183;28;20234;-87
2022/05/07 00:11:55;;;;;;;3.10;2.80;;;;;;;;;;5053136;28;20198;-86
2022/05/07 00:14:22;;;;;;;3.23;2.97;;;;;;;;;;5052601;28;20237;-87
2022/05/07 00:19:35;;;;;;;3.90;3.20;;;;;;;;;;5052512;28;20407;-87
2022/05/07 00:22:03;;;;;;;3.00;2.80;;;;;;;;;;5053613;28;20255;-87
2022/05/07 00:24:30;;;;;;;3.70;3.40;;;;;;;;;;5052250;28;20268;-86
2022/05/07 00:26:57;;;;;;;3.83;3.53;;;;;;;;;;5052669;28;20230;-87
2022/05/07 00:29:24;;;;;;;5.03;2.93;;;;;;;;;;5052242;28;20238;-87
2022/05/07 00:31:51;;;;;;;3.50;3.00;;;;;;;;;;5053020;28;20206;-87
2022/05/07 00:34:21;;;;;;;3.03;2.73;;;;;;;;;;5051639;28;20241;-87
2022/05/07 00:36:49;;;;;;;3.53;3.00;;;;;;;;;;5052613;28;20265;-87
2022/05/07 00:39:16;;;;;;;3.50;3.27;;;;;;;;;;5052091;28;20234;-87
2022/05/07 00:41:43;;;;;;;3.50;2.90;;;;;;;;;;5052539;28;20198;-87
2022/05/07 00:44:10;;;;;;;3.53;2.87;;;;;;;;;;5051970;28;20241;-87
2022/05/07 00:46:38;;;;;;;4.50;4.07;;;;;;;;;;5052238;28;20230;-87
2022/05/07 00:49:05;;;;;;;3.37;3.10;;;;;;;;;;5052235;28;20237;-87
2022/05/07 00:51:34;;;;;;;3.40;3.10;;;;;;;;;;5052564;28;20209;-87
2022/05/07 00:54:03;;;;;;;3.10;2.73;;;;;;;;;;5051652;28;20261;-87
2022/05/07 00:56:30;;;;;;;5.50;3.13;;;;;;;;;;5052234;28;20206;-86
2022/05/07 00:58:58;;;;;;;4.40;2.97;;;;;;;;;;5051928;28;20233;-87
2022/05/07 01:01:25;;;;;;;6.80;3.53;;;;;;;;;;5052069;28;20207;-86
2022/05/07 01:03:53;;;;;;;2.90;2.70;;;;;;;;;;5051687;28;20237;-86
2022/05/07 01:06:20;;;;;;;2.93;2.73;;;;;;;;;;5043826;28;20227;-86
2022/05/07 01:08:47;;;;;;;4.10;2.97;;;;;;;;;;5051122;28;20275;-86
2022/05/07 01:11:16;;;;;;;5.70;3.10;;;;;;;;;;5052044;28;20260;-86
2022/05/07 01:13:45;;;;;;;3.07;2.87;;;;;;;;;;5051460;28;20257;-86
2022/05/07 01:16:12;;;;;;;3.73;3.43;;;;;;;;;;5052523;28;20638;-86
2022/05/07 01:18:40;;;;;;;4.30;2.90;;;;;;;;;;5053761;28;20709;-86
2022/05/07 01:21:12;;;;;;;3.13;2.57;;;;;;;;;;5055660;28;20205;-86
2022/05/07 01:23:39;;;;;;;4.80;2.63;;;;;;;;;;5051014;28;20686;-86
2022/05/07 01:26:06;;;;;;;3.63;2.60;;;;;;;;;;5051822;28;20226;-86
2022/05/07 01:28:33;;;;;;;4.07;2.83;;;;;;;;;;5055958;28;20213;-86
2022/05/07 01:31:00;;;;;;;4.50;2.83;;;;;;;;;;5052279;28;20217;-86
2022/05/07 01:33:27;;;;;;;2.90;2.70;;;;;;;;;;5051137;28;20206;-87
2022/05/07 01:35:54;;;;;;;5.00;2.83;;;;;;;;;;5052433;28;20693;-86
2022/05/07 01:38:23;;;;;;;6.23;2.97;;;;;;;;;;5052121;28;20206;-86
2022/05/07 01:40:50;;;;;;;3.03;2.73;;;;;;;;;;5051892;28;20563;-86
2022/05/07 01:43:17;;;;;;;3.13;2.80;;;;;;;;;;5051489;28;20211;-86
2022/05/07 01:45:44;;;;;;;3.13;2.93;;;;;;;;;;5051240;28;20311;-86
2022/05/07 01:48:10;;;;;;;4.40;3.07;;;;;;;;;;5054634;28;20237;-86
2022/05/07 01:50:40;;;;;;;3.10;2.80;;;;;;;;;;5063947;28;20279;-86
2022/05/07 01:53:08;;;;;;;3.73;3.00;;;;;;;;;;5055759;28;20217;-86
2022/05/07 01:55:37;;;;;;;3.27;2.93;;;;;;;;;;5054881;28;20321;-86
2022/05/07 01:58:04;;;;;;;3.40;3.10;;;;;;;;;;5055462;28;20209;-86
2022/05/07 02:00:31;;;;;;;3.43;3.10;;;;;;;;;;5054888;28;20237;-86
2022/05/07 02:02:59;;;;;;;4.40;3.20;;;;;;;;;;5055594;28;20207;-86
2022/05/07 02:05:26;;;;;;;3.57;3.00;;;;;;;;;;5055018;28;20242;-86
2022/05/07 02:07:53;;;;;;;3.47;2.80;;;;;;;;;;5055629;28;20668;-86
2022/05/07 02:10:20;;;;;;;3.17;2.67;;;;;;;;;;5055039;28;20234;-86
2022/05/07 02:12:49;;;;;;;6.50;2.93;;;;;;;;;;5054937;28;20214;-86
2022/05/07 02:15:17;;;;;;;6.77;2.80;;;;;;;;;;5054839;28;20257;-86
2022/05/07 02:17:44;;;;;;;3.73;3.43;;;;;;;;;;5065512;28;20220;-86
2022/05/07 02:20:11;;;;;;;3.90;2.93;;;;;;;;;;5055007;28;20234;-86
2022/05/07 02:22:38;;;;;;;4.03;3.10;;;;;;;;;;5055301;28;20670;-86
2022/05/07 02:25:06;;;;;;;4.70;3.10;;;;;;;;;;5054585;28;20245;-86
2022/05/07 02:27:33;;;;;;;4.57;3.17;;;;;;;;;;5055021;28;20218;-86
2022/05/07 02:30:02;;;;;;;7.13;2.90;;;;;;;;;;5054725;28;20238;-87
2022/05/07 02:32:29;;;;;;;3.67;3.03;;;;;;;;;;5055266;28;20256;-86
2022/05/07 02:34:56;;;;;;;3.20;2.90;;;;;;;;;;5054366;28;20245;-87
2022/05/07 02:37:23;;;;;;;3.77;3.37;;;;;;;;;;5054762;28;20665;-87
2022/05/07 02:39:50;;;;;;;3.43;2.70;;;;;;;;;;5054946;28;20234;-86
2022/05/07 02:42:36;;;;;;;3.53;3.23;;;;;;;;;;5062128;28;20206;-87
2022/05/07 02:45:06;;;;;;;3.57;3.30;;;;;;;;;;5060284;28;20239;-86
2022/05/07 02:47:33;;;;;;;4.90;2.90;;;;;;;;;;5057113;28;20276;-86
2022/05/07 02:50:00;;;;;;;6.57;3.30;;;;;;;;;;5055663;28;20238;-87
2022/05/07 02:52:27;;;;;;;4.73;3.20;;;;;;;;;;5055684;28;20208;-87
2022/05/07 02:54:54;;;;;;;3.40;3.17;;;;;;;;;;5053749;28;20249;-86
2022/05/07 02:57:21;;;;;;;3.40;3.10;;;;;;;;;;5054902;28;20233;-86
2022/05/07 02:59:48;;;;;;;3.67;3.30;;;;;;;;;;5053972;28;20242;-86
2022/05/07 03:02:16;;;;;;;3.10;2.90;;;;;;;;;;5054272;28;20611;-86
2022/05/07 03:04:44;;;;;;;5.23;3.43;;;;;;;;;;5053597;28;20242;-87
2022/05/07 03:07:11;;;;;;;4.23;3.67;;;;;;;;;;5054555;28;20230;-87
2022/05/07 03:09:38;;;;;;;3.77;3.47;;;;;;;;;;5053911;28;20587;-86
2022/05/07 03:12:05;;;;;;;3.73;3.30;;;;;;;;;;5054478;28;20218;-87
2022/05/07 03:14:32;;;;;;;3.00;2.80;;;;;;;;;;5053513;28;20590;-87
2022/05/07 03:16:59;;;;;;;4.43;3.10;;;;;;;;;;5054305;28;20288;-86
2022/05/07 03:19:28;;;;;;;3.20;2.90;;;;;;;;;;5053608;28;20233;-86
2022/05/07 03:21:55;;;;;;;4.60;3.30;;;;;;;;;;5054115;28;20566;-87
2022/05/07 03:24:22;;;;;;;9.73;2.87;;;;;;;;;;5052908;28;20248;-87
2022/05/07 03:26:49;;;;;;;4.40;2.97;;;;;;;;;;5053829;28;20678;-86
2022/05/07 03:29:16;;;;;;;5.30;3.17;;;;;;;;;;5053784;28;20238;-86
2022/05/07 03:31:47;;;;;;;6.23;3.10;;;;;;;;;;5053990;28;20203;-87
2022/05/07 03:34:14;;;;;;;3.20;2.83;;;;;;;;;;5053205;28;20242;-86
2022/05/07 03:36:42;;;;;;;3.67;3.37;;;;;;;;;;5053998;28;20195;-86
2022/05/07 03:39:09;;;;;;;3.80;3.20;;;;;;;;;;5066584;23;20225;-84
2022/05/07 03:41:37;;;;;;;10.20;3.00;;;;;;;;;;5051856;28;20198;-82
2022/05/07 03:44:04;;;;;;;7.90;3.03;;;;;;;;;;5061767;28;20241;-83
2022/05/07 03:46:31;;;;;;;3.97;3.63;;;;;;;;;;5063463;28;20202;-82
2022/05/07 03:48:58;;;;;;;3.70;3.40;;;;;;;;;;5062502;28;20237;-82
2022/05/07 03:51:25;;;;;;;12.83;3.70;;;;;;;;;;5063242;28;20210;-81
2022/05/07 03:53:52;;;;;;;3.80;3.50;;;;;;;;;;5062555;28;20249;-82
2022/05/07 03:56:19;;;;;;;5.47;4.03;;;;;;;;;;5063386;28;20221;-82
2022/05/07 03:58:47;;;;;;;3.90;3.50;;;;;;;;;;5062765;28;20240;-82
2022/05/07 04:01:15;;;;;;;4.30;3.73;;;;;;;;;;5063348;28;20577;-82
2022/05/07 04:03:42;;;;;;;3.90;3.60;;;;;;;;;;5063337;28;20287;-81
2022/05/07 04:06:09;;;;;;;3.97;3.57;;;;;;;;;;5062859;28;20206;-81
2022/05/07 04:08:36;;;;;;;4.17;3.87;;;;;;;;;;5062399;28;20206;-82
2022/05/07 04:11:04;;;;;;;4.17;3.80;;;;;;;;;;5061800;28;20225;-82
2022/05/07 04:13:31;;;;;;;3.93;3.63;;;;;;;;;;5061818;28;20210;-82
2022/05/07 04:15:58;;;;;;;3.93;3.50;;;;;;;;;;5062747;28;20214;-84
2022/05/07 04:18:25;;;;;;;4.37;3.60;;;;;;;;;;5061829;28;20737;-82
2022/05/07 04:20:52;;;;;;;3.83;3.53;;;;;;;;;;5062074;28;20230;-84
2022/05/07 04:23:20;;;;;;;4.67;3.30;;;;;;;;;;5056142;28;20198;-83
2022/05/07 04:25:47;;;;;;;3.90;3.60;;;;;;;;;;5056255;28;20234;-82
2022/05/07 04:28:16;;;;;;;6.80;3.60;;;;;;;;;;5064135;28;20202;-82
2022/05/07 04:30:43;;;;;;;5.13;3.80;;;;;;;;;;5063512;28;20245;-84
2022/05/07 04:33:10;;;;;;;3.77;3.47;;;;;;;;;;5064160;28;20209;-82
2022/05/07 04:35:38;;;;;;;3.83;3.43;;;;;;;;;;5063345;28;20609;-83
2022/05/07 04:38:05;;;;;;;5.53;3.47;;;;;;;;;;5063799;28;20221;-82
2022/05/07 04:40:32;;;;;;;3.13;2.93;;;;;;;;;;5062799;28;20241;-83
2022/05/07 04:42:59;;;;;;;3.83;3.53;;;;;;;;;;5063858;28;20208;-82
2022/05/07 04:45:28;;;;;;;4.33;3.60;;;;;;;;;;5062740;28;20237;-82
2022/05/07 04:47:55;;;;;;;4.33;3.93;;;;;;;;;;5063851;28;20304;-83
2022/05/07 04:50:22;;;;;;;4.50;4.10;;;;;;;;;;5063826;28;20241;-82
2022/05/07 04:52:49;;;;;;;4.87;4.07;;;;;;;;;;5063409;28;20198;-83
2022/05/07 04:55:16;;;;;;;4.97;4.13;;;;;;;;;;5062980;28;20260;-84
2022/05/07 04:57:43;;;;;;;6.00;4.20;;;;;;;;;;5064253;28;20226;-83
2022/05/07 05:00:12;;;;;;;5.07;3.97;;;;;;;;;;5060588;28;20252;-82
2022/05/07 05:02:40;;;;;;;4.13;3.73;;;;;;;;;;5044312;28;20216;-83
2022/05/07 05:05:07;;;;;;;8.17;4.20;;;;;;;;;;5042440;28;20253;-82
2022/05/07 05:07:35;;;;;;;9.37;4.67;;;;;;;;;;5044324;28;20202;-83
2022/05/07 05:10:02;;;;;;;4.80;3.90;;;;;;;;;;5039233;28;20257;-80
2022/05/07 05:12:29;;;;;;;5.73;4.07;;;;;;;;;;5025795;28;20574;-78
2022/05/07 05:15:03;;;;;;;5.90;4.57;;;;;;;;;;5013586;28;20247;-79
2022/05/07 05:17:30;;;;;;;5.00;4.60;;;;;;;;;;5014771;28;20600;-79
2022/05/07 05:19:59;;;;;;;5.70;4.80;;;;;;;;;;5015297;28;20235;-79
2022/05/07 05:22:26;;;;;;;5.97;4.60;;;;;;;;;;5026625;28;20780;-79
2022/05/07 05:24:53;;;;;;;5.93;4.40;;;;;;;;;;5035835;28;20242;-80
2022/05/07 05:27:20;;;;;;;8.17;4.70;;;;;;;;;;5017851;28;20203;-79
2022/05/07 05:29:47;;;;;;;5.63;5.07;;;;;;;;;;5015358;28;20318;-78
2022/05/07 05:32:17;;;;;;;6.80;5.17;;;;;;;;;;5013926;28;20222;-80
2022/05/07 05:34:44;;;;;;;5.07;4.53;;;;;;;;;;5013102;28;20262;-78
2022/05/07 05:37:13;;;;;;;5.83;5.10;;;;;;;;;;5015194;28;20210;-79
2022/05/07 05:39:40;;;;;;;5.77;5.17;;;;;;;;;;5034650;28;20600;-79
2022/05/07 05:42:07;;;;;;;6.27;5.07;;;;;;;;;;5032901;28;20265;-81
2022/05/07 05:44:37;;;;;;;8.23;5.00;;;;;;;;;;5039124;28;20720;-80
2022/05/07 05:47:04;;;;;;;6.90;5.00;;;;;;;;;;5039522;28;20221;-80
2022/05/07 05:49:31;;;;;;;7.90;5.10;;;;;;;;;;5039465;28;20281;-83
2022/05/07 05:52:02;;;;;;;5.60;4.77;;;;;;;;;;5037653;28;20280;-81
2022/05/07 05:54:30;;;;;;;6.00;5.30;;;;;;;;;;5035065;28;20234;-79
2022/05/07 05:56:57;;;;;;;6.50;4.97;;;;;;;;;;5040212;28;20211;-82
2022/05/07 05:59:24;;;;;;;5.13;4.63;;;;;;;;;;5034434;28;20269;-78
2022/05/07 06:01:51;;;;;;;9.27;5.37;;;;;;;;;;5032615;28;20241;-81
2022/05/07 06:04:18;;;;;;;8.90;5.63;;;;;;;;;;5031842;28;20238;-79
2022/05/07 06:06:45;;;;;;;8.77;4.83;;;;;;;;;;5031326;28;20209;-79
2022/05/07 06:09:13;;;;;;;7.43;4.60;;;;;;;;;;5031986;28;20238;-79
2022/05/07 06:11:41;;;;;;;5.83;4.30;;;;;;;;;;5032253;28;20246;-79
2022/05/07 06:14:08;;;;;;;6.37;4.67;;;;;;;;;;5033573;28;20238;-79
2022/05/07 06:16:35;;;;;;;7.37;4.33;;;;;;;;;;5033388;28;20207;-79
2022/05/07 06:19:02;;;;;;;5.30;4.50;;;;;;;;;;5018239;28;20238;-79
2022/05/07 06:21:29;;;;;;;6.67;4.90;;;;;;;;;;5027114;28;20290;-79
2022/05/07 06:27:28;;;;;;;7.20;4.60;;;;;;;;;;5030879;28;20235;-79
2022/05/07 06:29:38;;;;;;;6.63;5.00;;;;;;;;;;4973137;28;20234;-79
2022/05/07 06:32:05;;;;;;;6.67;4.53;;;;;;;;;;5015365;28;20582;-80
2022/05/07 06:34:32;;;;;;;5.43;4.43;;;;;;;;;;5034409;28;20235;-80
2022/05/07 06:36:59;;;;;;;6.17;4.30;;;;;;;;;;5036178;28;20210;-77
2022/05/07 06:39:26;;;;;;;4.13;3.77;;;;;;;;;;5037883;28;20277;-81
2022/05/07 06:41:55;;;;;;;4.90;4.50;;;;;;;;;;5040662;28;20206;-80
2022/05/07 06:44:22;;;;;;;4.43;4.03;;;;;;;;;;5044963;28;20234;-80
2022/05/07 06:46:49;;;;;;;4.20;3.90;;;;;;;;;;5044519;28;20210;-84
2022/05/07 06:49:17;;;;;;;6.53;4.37;;;;;;;;;;5046467;28;20230;-81
2022/05/07 06:51:44;;;;;;;4.60;4.10;;;;;;;;;;5044997;28;20199;-80
2022/05/07 06:54:11;;;;;;;6.53;4.23;;;;;;;;;;5043383;28;20234;-81
2022/05/07 06:56:38;;;;;;;3.97;3.63;;;;;;;;;;5046175;28;20617;-80
2022/05/07 06:59:07;;;;;;;4.27;3.87;;;;;;;;;;5038838;28;20345;-80
2022/05/07 07:01:34;;;;;;;4.50;3.97;;;;;;;;;;5042579;28;20202;-81
2022/05/07 07:04:01;;;;;;;4.53;4.13;;;;;;;;;;5035647;28;20239;-81
2022/05/07 07:06:28;;;;;;;4.47;4.07;;;;;;;;;;5038606;28;20195;-80
2022/05/07 07:08:56;;;;;;;4.30;3.90;;;;;;;;;;5041724;28;20246;-81
2022/05/07 07:11:24;;;;;;;5.17;4.13;;;;;;;;;;5042665;28;20210;-82
2022/05/07 07:13:52;;;;;;;6.23;3.77;;;;;;;;;;5041204;28;20269;-82
2022/05/07 07:16:20;;;;;;;5.03;3.70;;;;;;;;;;5042593;28;20202;-82
2022/05/07 07:18:47;;;;;;;4.30;3.67;;;;;;;;;;5040781;28;20242;-82
2022/05/07 07:21:14;;;;;;;4.20;3.73;;;;;;;;;;5040389;28;20210;-79
2022/05/07 07:23:41;;;;;;;4.67;3.50;;;;;;;;;;5040867;28;20238;-84
2022/05/07 07:26:08;;;;;;;4.27;3.60;;;;;;;;;;5039206;28;20547;-81
2022/05/07 07:28:36;;;;;;;5.17;3.40;;;;;;;;;;5039778;28;20211;-79
2022/05/07 07:31:03;;;;;;;3.93;3.63;;;;;;;;;;5039468;28;20359;-82
2022/05/07 07:33:32;;;;;;;4.23;3.00;;;;;;;;;;5033895;28;20211;-80
2022/05/07 07:35:59;;;;;;;3.63;3.33;;;;;;;;;;5040030;28;20289;-81
2022/05/07 07:38:26;;;;;;;3.37;3.07;;;;;;;;;;5038060;28;20844;-80
2022/05/07 07:40:53;;;;;;;3.53;3.20;;;;;;;;;;5037378;28;20230;-81
2022/05/07 07:43:21;;;;;;;3.57;3.20;;;;;;;;;;5036712;28;20206;-81
2022/05/07 07:48:34;;;;;;;3.10;2.80;;;;;;;;;;5038495;28;20225;-81
2022/05/07 07:51:02;;;;;;;8.80;3.37;;;;;;;;;;5038902;28;20273;-81
2022/05/07 07:53:29;;;;;;;4.90;2.97;;;;;;;;;;5038526;28;20210;-82
2022/05/07 07:55:56;;;;;;;3.33;2.92;;;;;;;;;;5041643;28;20206;-81
2022/05/07 07:58:23;;;;;;;3.05;2.72;;;;;;;;;;5040845;28;20225;-82
2022/05/07 08:00:50;;;;;;;3.53;3.05;;;;;;;;;;5041265;28;20230;-80
2022/05/07 08:03:19;;;;;;;3.97;2.88;;;;;;;;;;5041536;28;20210;-82
2022/05/07 08:05:49;;;;;;;3.22;2.92;;;;;;;;;;5040881;28;20222;-80
2022/05/07 08:13:47;;;;;;;2.97;2.40;;;;;;;;;;5040905;28;20313;-81
2022/05/07 08:16:15;;;;;;;3.13;2.45;;;;;;;;;;5041351;28;20206;-81
2022/05/07 08:18:42;;;;;;;3.30;2.58;;;;;;;;;;5041018;28;20238;-82
2022/05/07 08:21:11;;;;;;;2.97;2.70;;;;;;;;;;5041583;28;20712;-83
2022/05/07 08:23:38;;;;;;;5.03;2.75;;;;;;;;;;5040565;28;20248;-80
2022/05/07 08:26:06;;;;;;;3.38;2.75;;;;;;;;;;5041624;28;20206;-82
2022/05/07 08:28:33;;;;;;;3.33;2.90;;;;;;;;;;5040271;28;20203;-81
2022/05/07 08:31:00;;;;;;;4.07;2.70;;;;;;;;;;5041178;28;20226;-81
2022/05/07 08:33:28;;;;;;;3.53;2.58;;;;;;;;;;5040635;28;20206;-81
2022/05/07 08:35:55;;;;;;;3.67;3.10;;;;;;;;;;5041318;28;20210;-82
2022/05/07 08:38:24;;;;;;;2.70;2.47;;;;;;;;;;5040246;28;20230;-81
2022/05/07 08:40:51;;;;;;;5.20;2.65;;;;;;;;;;5040868;28;20238;-82
2022/05/07 08:43:20;;;;;;;2.40;2.20;;;;;;;;;;5040201;28;20206;-82
2022/05/07 08:45:47;;;;;;;2.75;2.20;;;;;;;;;;5039476;28;20626;-82
2022/05/07 08:48:14;;;;;;;2.90;2.60;;;;;;;;;;5040823;28;20253;-82
2022/05/07 08:50:41;;;;;;;2.72;2.50;;;;;;;;;;5040508;28;20246;-82
2022/05/07 08:53:09;;;;;;;2.30;2.10;;;;;;;;;;5039965;28;20214;-83
2022/05/07 08:55:37;;;;;;;2.20;2.10;;;;;;;;;;5039275;28;20306;-82
2022/05/07 08:58:04;;;;;;;3.63;2.38;;;;;;;;;;5037606;28;20246;-83
2022/05/07 09:00:32;;;;;;;3.47;2.08;;;;;;;;;;5037672;28;20253;-82
2022/05/07 09:03:00;;;;;;;2.45;1.83;;;;;;;;;;5029130;28;20218;-82
2022/05/07 09:05:32;;;;;;;3.38;2.00;;;;;;;;;;5037351;28;20237;-83
2022/05/07 09:08:00;;;;;;;2.13;1.92;;;;;;;;;;5031313;28;20195;-82
2022/05/07 09:10:27;;;;;;;2.65;1.63;;;;;;;;;;5037908;28;20242;-83
2022/05/07 09:12:56;;;;;;;3.65;2.30;;;;;;;;;;5038621;28;20289;-82
2022/05/07 09:15:25;;;;;;;1.50;1.40;;;;;;;;;;5037834;28;20239;-83
2022/05/07 09:17:52;;;;;;;2.00;1.90;;;;;;;;;;5038205;28;20578;-82
2022/05/07 09:20:19;;;;;;;3.25;2.03;;;;;;;;;;5037469;28;20241;-82
2022/05/07 09:22:51;;;;;;;1.45;1.35;;;;;;;;;;5038663;28;20199;-82
2022/05/07 09:25:22;;;;;;;2.13;1.80;;;;;;;;;;5039102;28;20273;-82
2022/05/07 09:27:51;;;;;;;2.00;1.67;;;;;;;;;;5039149;28;20261;-82
2022/05/07 09:30:24;;;;;;;2.42;1.50;;;;;;;;;;5039764;28;20238;-82
2022/05/07 09:32:52;;;;;;;1.17;1.13;;;;;;;;;;5040088;28;20213;-83
2022/05/07 09:38:10;;;;;;;1.30;1.20;;;;;;;;;;5025274;28;20218;-85
2022/05/07 09:40:39;;;;;;;1.42;1.30;;;;;;;;;;5038942;28;20621;-85
2022/05/07 09:43:07;;;;;;;1.60;1.50;;;;;;;;;;5041452;28;20199;-86
2022/05/07 09:45:36;;;;;;;1.60;1.20;;;;;;;;;;5043402;28;20241;-87
2022/05/07 09:48:04;;;;;;;1.45;1.30;;;;;;;;;;5043853;28;20210;-85
2022/05/07 09:50:46;;;;;;;2.88;1.30;;;;;;;;;;5042586;28;20305;-86
2022/05/07 09:58:43;;;;;;;1.40;1.30;;;;;;;;;;5020017;28;20244;-84
2022/05/07 10:01:17;;;;;;;2.80;1.30;;;;;;;;;;5053347;28;20210;-85
2022/05/07 10:03:48;;;;;;;1.27;1.20;;;;;;;;;;5052214;28;20229;-83
2022/05/07 10:06:23;;;;;;;2.60;1.25;;;;;;;;;;5053289;28;20217;-84
2022/05/07 10:08:54;;;;;;;1.30;1.20;;;;;;;;;;5054307;28;20252;-84
2022/05/07 10:11:22;;;;;;;1.40;1.27;;;;;;;;;;5056937;28;20198;-84
2022/05/07 10:13:53;;;;;;;1.45;1.35;;;;;;;;;;5055910;28;20234;-84
2022/05/07 10:16:23;;;;;;;2.53;1.88;;;;;;;;;;5057744;28;20246;-84
2022/05/07 10:18:50;;;;;;;3.85;2.08;;;;;;;;;;5056299;28;20281;-84
2022/05/07 10:21:18;;;;;;;2.33;1.60;;;;;;;;;;5057123;28;20202;-85
2022/05/07 10:23:52;;;;;;;1.52;1.42;;;;;;;;;;5056670;28;20697;-86
2022/05/07 10:26:20;;;;;;;1.80;1.67;;;;;;;;;;5057008;28;20240;-85
2022/05/07 10:28:47;;;;;;;2.00;1.55;;;;;;;;;;5056388;28;20920;-84
2022/05/07 10:31:18;;;;;;;3.28;1.67;;;;;;;;;;5057274;28;20202;-85
2022/05/07 10:33:46;;;;;;;2.45;1.33;;;;;;;;;;5055163;28;20674;-86
2022/05/07 10:36:14;;;;;;;1.55;1.40;;;;;;;;;;5055489;28;20666;-85
2022/05/07 10:38:44;;;;;;;2.75;1.80;;;;;;;;;;5056648;28;20812;-84
2022/05/07 10:41:20;;;;;;;2.70;1.88;;;;;;;;;;5056946;28;20704;-84
2022/05/07 10:43:48;;;;;;;1.98;1.30;;;;;;;;;;5056191;28;20630;-86
2022/05/07 10:46:16;;;;;;;1.48;1.30;;;;;;;;;;5056931;28;20720;-84
2022/05/07 10:48:44;;;;;;;1.67;1.55;;;;;;;;;;5056208;28;20313;-87
2022/05/07 10:51:19;;;;;;;2.55;1.63;;;;;;;;;;5057298;28;20256;-86
2022/05/07 10:53:46;;;;;;;1.77;1.17;;;;;;;;;;5056045;28;20241;-84
2022/05/07 10:56:14;;;;;;;1.40;1.30;;;;;;;;;;5056310;28;20688;-84
2022/05/07 10:58:46;;;;;;;1.45;1.20;;;;;;;;;;5057808;28;20270;-84
2022/05/07 11:01:13;;;;;;;2.83;1.13;;;;;;;;;;5072654;28;20201;-85
2022/05/07 11:03:40;;;;;;;2.97;1.40;;;;;;;;;;5080420;28;20351;-85
2022/05/07 11:06:07;;;;;;;1.77;1.63;;;;;;;;;;5077020;28;20236;-84
2022/05/07 11:08:46;;;;;;;2.08;1.77;;;;;;;;;;5075630;28;20209;-85
2022/05/07 11:11:14;;;;;;;1.60;0.98;;;;;;;;;;5077255;28;20251;-83
2022/05/07 11:13:48;;;;;;;1.75;1.38;;;;;;;;;;5075341;28;20308;-83
2022/05/07 11:16:16;;;;;;;3.05;1.30;;;;;;;;;;5075356;28;20216;-83
2022/05/07 11:18:45;;;;;;;3.85;1.40;;;;;;;;;;5074669;28;20259;-83
2022/05/07 11:21:13;;;;;;;2.90;1.40;;;;;;;;;;5089962;28;20197;-83
2022/05/07 11:23:43;;;;;;;1.50;1.40;;;;;;;;;;5097956;28;20199;-84
2022/05/07 11:26:11;;;;;;;1.33;1.23;;;;;;;;;;5084939;28;20590;-84
2022/05/07 11:28:39;;;;;;;2.20;1.40;;;;;;;;;;5077906;28;20233;-83
2022/05/07 11:31:06;;;;;;;1.42;1.30;;;;;;;;;;5077006;28;20225;-86
2022/05/07 11:33:33;;;;;;;5.28;1.38;;;;;;;;;;5079013;28;20198;-86
2022/05/07 11:36:01;;;;;;;2.15;1.30;;;;;;;;;;5082854;28;20205;-86
2022/05/07 11:38:28;;;;;;;2.88;1.13;;;;;;;;;;5081358;28;20213;-86
2022/05/07 11:40:57;;;;;;;2.20;1.27;;;;;;;;;;5081249;28;20237;-86
2022/05/07 11:46:08;;;;;;;2.70;1.23;;;;;;;;;;5080822;28;20235;-86
2022/05/07 11:48:35;;;;;;;1.42;1.33;;;;;;;;;;5080751;28;20197;-86
2022/05/07 11:51:02;;;;;;;2.92;1.48;;;;;;;;;;5081597;28;20232;-86
2022/05/07 11:53:31;;;;;;;2.13;1.40;;;;;;;;;;5081446;28;20550;-85
2022/05/07 11:56:09;;;;;;;2.50;1.42;;;;;;;;;;5081208;28;20215;-85
2022/05/07 11:58:40;;;;;;;1.38;1.25;;;;;;;;;;5082905;28;20209;-84
2022/05/07 12:01:18;;;;;;;2.08;1.30;;;;;;;;;;5081599;28;20233;-84
2022/05/07 12:03:48;;;;;;;1.63;1.52;;;;;;;;;;5083872;28;20234;-83
2022/05/07 12:06:25;;;;;;;3.55;1.30;;;;;;;;;;5081408;28;20212;-83
2022/05/07 12:08:52;;;;;;;3.28;1.60;;;;;;;;;;5040103;28;20264;-84
2022/05/07 12:11:21;;;;;;;1.85;1.23;;;;;;;;;;5040778;28;20203;-84
2022/05/07 12:13:48;;;;;;;2.83;1.25;;;;;;;;;;5039839;28;20241;-84
2022/05/07 12:19:00;;;;;;;2.78;1.40;;;;;;;;;;5040521;28;20321;-83
2022/05/07 12:29:49;;;;;;;2.70;1.80;;;;;;;;;;5038655;28;20300;-83
2022/05/07 12:32:16;;;;;;;3.03;1.20;;;;;;;;;;5038055;28;20228;-83
2022/05/07 12:34:43;;;;;;;2.17;1.85;;;;;;;;;;5037429;28;20242;-84
2022/05/07 12:37:11;;;;;;;3.05;1.30;;;;;;;;;;5038972;28;20207;-85
2022/05/07 12:39:38;;;;;;;1.95;1.38;;;;;;;;;;5035574;28;20269;-83
2022/05/07 12:42:07;;;;;;;1.35;1.20;;;;;;;;;;5047264;28;20214;-83
2022/05/07 12:44:34;;;;;;;2.35;1.27;;;;;;;;;;5042064;28;20242;-83
2022/05/07 12:47:01;;;;;;;2.05;1.20;;;;;;;;;;5041711;28;20214;-83
2022/05/07 12:49:28;;;;;;;2.40;1.38;;;;;;;;;;5042680;28;20238;-83
2022/05/07 12:51:55;;;;;;;5.97;1.42;;;;;;;;;;5042983;28;20202;-83
2022/05/07 12:54:22;;;;;;;1.95;1.60;;;;;;;;;;5042014;28;20254;-84
2022/05/07 12:56:49;;;;;;;1.58;1.30;;;;;;;;;;5041586;28;20207;-84
2022/05/07 12:59:18;;;;;;;1.92;1.52;;;;;;;;;;5040174;28;20249;-83
2022/05/07 13:01:45;;;;;;;1.85;1.10;;;;;;;;;;5073054;28;20212;-83
2022/05/07 13:04:12;;;;;;;1.25;1.20;;;;;;;;;;5078677;28;20241;-83
2022/05/07 13:06:39;;;;;;;2.58;1.40;;;;;;;;;;5080793;28;20220;-83
2022/05/07 13:09:06;;;;;;;1.55;1.30;;;;;;;;;;5079530;28;20237;-83
2022/05/07 13:11:33;;;;;;;3.13;1.48;;;;;;;;;;5081669;28;20281;-83
2022/05/07 13:14:00;;;;;;;3.17;1.65;;;;;;;;;;5073097;28;20225;-83
2022/05/07 13:16:29;;;;;;;1.38;1.20;;;;;;;;;;5082352;28;20205;-83
2022/05/07 13:18:56;;;;;;;2.10;1.30;;;;;;;;;;5083410;28;20260;-84
2022/05/07 13:21:23;;;;;;;1.10;1.10;;;;;;;;;;5083370;28;20229;-83
2022/05/07 13:23:50;;;;;;;1.55;1.45;;;;;;;;;;5081233;28;20236;-83
2022/05/07 13:26:17;;;;;;;1.30;1.20;;;;;;;;;;5081388;28;20231;-83
2022/05/07 13:28:44;;;;;;;5.18;1.30;;;;;;;;;;5078982;28;20241;-84
2022/05/07 13:31:11;;;;;;;1.50;1.40;;;;;;;;;;5078388;28;20205;-83
2022/05/07 13:33:39;;;;;;;1.63;1.30;;;;;;;;;;5077997;28;20221;-83
2022/05/07 13:36:06;;;;;;;1.20;1.08;;;;;;;;;;5078717;28;20232;-83
2022/05/07 13:38:33;;;;;;;4.43;1.30;;;;;;;;;;5079062;28;20665;-83
2022/05/07 13:41:01;;;;;;;1.73;1.25;;;;;;;;;;5079401;28;20234;-83
2022/05/07 13:43:28;;;;;;;5.00;1.58;;;;;;;;;;5081733;28;20558;-83
2022/05/07 13:45:56;;;;;;;1.92;1.27;;;;;;;;;;5084346;28;20213;-82
2022/05/07 13:48:23;;;;;;;1.38;1.20;;;;;;;;;;5082828;28;20205;-84
2022/05/07 13:50:52;;;;;;;1.40;1.30;;;;;;;;;;5083379;28;20264;-85
2022/05/07 13:53:19;;;;;;;1.38;1.27;;;;;;;;;;5081090;28;20209;-84
2022/05/07 13:55:46;;;;;;;1.83;1.10;;;;;;;;;;5079751;28;20224;-84
2022/05/07 13:58:13;;;;;;;1.15;1.05;;;;;;;;;;5079860;28;20661;-84
2022/05/07 14:00:41;;;;;;;1.48;1.38;;;;;;;;;;5070686;28;20233;-84
2022/05/07 14:03:08;;;;;;;1.75;1.35;;;;;;;;;;5058299;28;20202;-84
2022/05/07 14:05:35;;;;;;;4.13;1.08;;;;;;;;;;5059264;28;20238;-84
2022/05/07 14:08:03;;;;;;;1.40;1.30;;;;;;;;;;5063827;28;20218;-84
2022/05/07 14:10:31;;;;;;;4.55;1.20;;;;;;;;;;5062014;28;20242;-85
2022/05/07 14:12:58;;;;;;;1.27;1.17;;;;;;;;;;5062656;28;20233;-84
2022/05/07 14:15:25;;;;;;;1.50;1.15;;;;;;;;;;5061582;28;20234;-84
2022/05/07 14:17:52;;;;;;;2.00;1.20;;;;;;;;;;5062860;28;20202;-85
2022/05/07 14:20:19;;;;;;;1.83;1.52;;;;;;;;;;5063207;28;20234;-85
2022/05/07 14:22:46;;;;;;;2.38;1.20;;;;;;;;;;5063161;28;20213;-84
2022/05/07 14:25:15;;;;;;;1.88;1.40;;;;;;;;;;5061304;28;20234;-84
2022/05/07 14:27:42;;;;;;;1.30;1.20;;;;;;;;;;5063478;28;20228;-84
2022/05/07 14:30:09;;;;;;;2.22;1.40;;;;;;;;;;5062504;28;20736;-84
2022/05/07 14:32:38;;;;;;;1.20;1.15;;;;;;;;;;5063477;28;20202;-84
2022/05/07 14:35:06;;;;;;;3.58;1.35;;;;;;;;;;5062804;28;20261;-84
2022/05/07 14:37:33;;;;;;;2.58;1.20;;;;;;;;;;5063769;28;20565;-84
2022/05/07 14:40:28;;;;;;;1.30;1.25;;;;;;;;;;5061849;28;20237;-84
2022/05/07 14:42:49;;;;;;;2.08;1.60;;;;;;;;;;5061405;28;20245;-84
2022/05/07 14:45:17;;;;;;;1.42;1.27;;;;;;;;;;5062361;28;20237;-85
2022/05/07 14:47:44;;;;;;;2.20;1.48;;;;;;;;;;5061865;28;20289;-85
2022/05/07 14:50:11;;;;;;;2.15;1.35;;;;;;;;;;5062623;28;20243;-84
2022/05/07 14:52:38;;;;;;;2.80;1.45;;;;;;;;;;5062365;28;20214;-84
2022/05/07 14:55:06;;;;;;;1.48;1.27;;;;;;;;;;5059350;28;20233;-85
2022/05/07 14:57:33;;;;;;;1.42;1.15;;;;;;;;;;5061961;28;20584;-85
2022/05/07 15:00:01;;;;;;;3.25;1.48;;;;;;;;;;5062011;28;20245;-85
2022/05/07 15:02:28;;;;;;;1.30;1.13;;;;;;;;;;5083462;28;20211;-85
2022/05/07 15:04:55;;;;;;;1.60;1.50;;;;;;;;;;5082262;28;20266;-85
2022/05/07 15:07:22;;;;;;;1.30;1.20;;;;;;;;;;5082014;28;20208;-84
2022/05/07 15:12:34;;;;;;;1.40;1.23;;;;;;;;;;5084011;28;20216;-84
2022/05/07 15:15:03;;;;;;;3.53;1.35;;;;;;;;;;5082390;28;20297;-85
2022/05/07 15:17:30;;;;;;;1.73;1.63;;;;;;;;;;5083009;28;20665;-85
2022/05/07 15:19:57;;;;;;;1.33;1.20;;;;;;;;;;5080489;28;20610;-84
2022/05/07 15:22:24;;;;;;;1.30;1.20;;;;;;;;;;5082280;28;20213;-85
2022/05/07 15:24:51;;;;;;;2.88;1.40;;;;;;;;;;5082513;28;20233;-84
2022/05/07 15:27:18;;;;;;;4.07;1.88;;;;;;;;;;5084783;28;20208;-84